Time;durP1;ratioP1;P1;durP2;ratioP2;P2;SDS_P1;SDS_P2;PMS_P1;PMS_P2;Temp;Humidity;BMP_temperature;BMP_pressure;BME280_temperature;BME280_humidity;BME280_pressure;Samples;Min_cycle;Max_cycle;Signal;HPM_P1;HPM_P2
2022/02/20 00:00:23;;;;;;;4.65;1.17;;;;;;;;;;5065833;28;20036;-49
2022/02/20 00:02:49;;;;;;;2.92;0.90;;;;;;;;;;5071217;28;20439;-52
2022/02/20 00:05:15;;;;;;;3.28;0.98;;;;;;;;;;5067823;28;20025;-52
2022/02/20 00:07:41;;;;;;;3.70;0.90;;;;;;;;;;5071864;28;20029;-53
2022/02/20 00:10:07;;;;;;;7.05;1.27;;;;;;;;;;5059771;28;20025;-51
2022/02/20 00:12:34;;;;;;;4.00;1.17;;;;;;;;;;5062674;28;20053;-55
2022/02/20 00:14:59;;;;;;;7.60;1.17;;;;;;;;;;5058930;28;20029;-49
2022/02/20 00:17:25;;;;;;;3.22;1.05;;;;;;;;;;5066201;28;20040;-53
2022/02/20 00:19:51;;;;;;;3.00;0.90;;;;;;;;;;5068802;28;20036;-54
2022/02/20 00:22:17;;;;;;;5.65;1.20;;;;;;;;;;5075246;28;20055;-50
2022/02/20 00:24:43;;;;;;;5.13;1.77;;;;;;;;;;5072496;28;20536;-52
2022/02/20 00:27:09;;;;;;;2.63;0.82;;;;;;;;;;5074182;28;20031;-49
2022/02/20 00:29:35;;;;;;;1.80;1.30;;;;;;;;;;5072070;28;20025;-51
2022/02/20 00:32:01;;;;;;;4.88;1.10;;;;;;;;;;5073451;28;20070;-51
2022/02/20 00:34:27;;;;;;;6.53;0.90;;;;;;;;;;5064960;28;20025;-50
2022/02/20 00:36:53;;;;;;;5.55;1.05;;;;;;;;;;5064531;28;20032;-51
2022/02/20 00:39:19;;;;;;;5.30;0.80;;;;;;;;;;5072248;28;20028;-55
2022/02/20 00:41:45;;;;;;;3.35;0.90;;;;;;;;;;5067285;28;20028;-55
2022/02/20 00:44:11;;;;;;;2.38;0.80;;;;;;;;;;5072351;28;20024;-51
2022/02/20 00:46:37;;;;;;;7.97;1.02;;;;;;;;;;5067723;28;20044;-53
2022/02/20 00:49:03;;;;;;;4.00;1.33;;;;;;;;;;5075047;28;20028;-53
2022/02/20 00:51:29;;;;;;;4.07;1.20;;;;;;;;;;5062390;28;20111;-49
2022/02/20 00:53:55;;;;;;;3.65;1.40;;;;;;;;;;5057984;28;20037;-51
2022/02/20 00:56:21;;;;;;;6.40;1.50;;;;;;;;;;5072513;28;20441;-51
2022/02/20 00:58:47;;;;;;;1.33;0.85;;;;;;;;;;5073384;28;20131;-49
2022/02/20 01:01:13;;;;;;;7.55;1.23;;;;;;;;;;5061294;28;20029;-51
2022/02/20 01:03:39;;;;;;;4.82;0.90;;;;;;;;;;5071346;28;20040;-55
2022/02/20 01:06:05;;;;;;;1.58;0.93;;;;;;;;;;5064303;28;20040;-53
2022/02/20 01:08:31;;;;;;;5.60;1.90;;;;;;;;;;5072735;28;20021;-52
2022/02/20 01:10:57;;;;;;;4.15;0.82;;;;;;;;;;5065226;28;20028;-51
2022/02/20 01:13:23;;;;;;;4.93;1.08;;;;;;;;;;5065569;28;20036;-54
2022/02/20 01:15:49;;;;;;;3.15;1.20;;;;;;;;;;5073940;28;20024;-54
2022/02/20 01:18:15;;;;;;;1.45;1.00;;;;;;;;;;5070104;28;20068;-50
2022/02/20 01:20:41;;;;;;;3.70;1.00;;;;;;;;;;5058250;28;20029;-50
2022/02/20 01:23:07;;;;;;;3.15;1.13;;;;;;;;;;5068652;28;20035;-51
2022/02/20 01:25:33;;;;;;;2.92;1.45;;;;;;;;;;5060958;28;20051;-52
2022/02/20 01:27:59;;;;;;;6.97;1.30;;;;;;;;;;5074296;28;20028;-51
2022/02/20 01:30:25;;;;;;;5.20;1.20;;;;;;;;;;5073519;28;20522;-50
2022/02/20 01:32:51;;;;;;;4.43;1.30;;;;;;;;;;5073567;28;20036;-50
2022/02/20 01:35:17;;;;;;;2.75;1.20;;;;;;;;;;5062309;28;20033;-50
2022/02/20 01:37:43;;;;;;;7.00;1.38;;;;;;;;;;5061486;28;20115;-50
2022/02/20 01:40:09;;;;;;;5.03;1.95;;;;;;;;;;5073975;28;20507;-53
2022/02/20 01:42:35;;;;;;;5.38;1.80;;;;;;;;;;5073993;28;20032;-52
2022/02/20 01:45:01;;;;;;;6.05;2.17;;;;;;;;;;5072468;28;20463;-53
2022/02/20 01:47:29;;;;;;;4.07;2.03;;;;;;;;;;5064254;28;20469;-52
2022/02/20 01:49:55;;;;;;;6.38;2.65;;;;;;;;;;5067778;28;20032;-55
2022/02/20 01:52:22;;;;;;;6.10;1.95;;;;;;;;;;5066422;28;20021;-55
2022/02/20 01:54:48;;;;;;;4.72;2.10;;;;;;;;;;5069797;28;20146;-54
2022/02/20 01:57:14;;;;;;;9.50;2.40;;;;;;;;;;5070550;28;20469;-53
2022/02/20 01:59:40;;;;;;;4.13;1.73;;;;;;;;;;5073795;28;20061;-51
2022/02/20 02:02:06;;;;;;;4.15;1.77;;;;;;;;;;5065037;28;20024;-50
2022/02/20 02:04:32;;;;;;;2.33;1.70;;;;;;;;;;5073764;28;20538;-52
2022/02/20 02:06:58;;;;;;;3.00;1.77;;;;;;;;;;5071919;28;20024;-54
2022/02/20 02:09:24;;;;;;;6.65;1.60;;;;;;;;;;5065960;28;20029;-51
2022/02/20 02:11:50;;;;;;;3.60;1.55;;;;;;;;;;5071711;28;20104;-50
2022/02/20 02:14:16;;;;;;;4.47;1.83;;;;;;;;;;5073490;28;20522;-50
2022/02/20 02:16:42;;;;;;;4.15;1.90;;;;;;;;;;5068757;28;20083;-51
2022/02/20 02:19:09;;;;;;;8.30;2.40;;;;;;;;;;5073591;28;20057;-50
2022/02/20 02:21:34;;;;;;;6.68;1.73;;;;;;;;;;5065423;28;20062;-56
2022/02/20 02:24:01;;;;;;;3.95;1.67;;;;;;;;;;5071997;28;20032;-57
2022/02/20 02:26:27;;;;;;;4.45;1.55;;;;;;;;;;5066147;28;20348;-55
2022/02/20 02:28:53;;;;;;;3.67;1.45;;;;;;;;;;5073002;28;20033;-57
2022/02/20 02:31:19;;;;;;;4.55;1.45;;;;;;;;;;5065324;28;20160;-56
2022/02/20 02:33:45;;;;;;;3.17;1.95;;;;;;;;;;5073416;28;20024;-53
2022/02/20 02:36:12;;;;;;;4.90;1.48;;;;;;;;;;5061004;28;20020;-54
2022/02/20 02:38:38;;;;;;;2.58;1.60;;;;;;;;;;5068098;28;20032;-56
2022/02/20 02:41:06;;;;;;;6.22;1.67;;;;;;;;;;5069991;28;20162;-53
2022/02/20 02:43:33;;;;;;;5.75;1.45;;;;;;;;;;5067483;28;20086;-51
2022/02/20 02:45:59;;;;;;;4.38;1.52;;;;;;;;;;5062236;28;20029;-52
2022/02/20 02:48:25;;;;;;;3.05;1.25;;;;;;;;;;5071281;28;20186;-52
2022/02/20 02:50:52;;;;;;;4.00;1.50;;;;;;;;;;5070429;28;20099;-52
2022/02/20 02:53:18;;;;;;;3.53;1.67;;;;;;;;;;5060598;28;20025;-51
2022/02/20 02:55:48;;;;;;;3.58;1.77;;;;;;;;;;5070215;28;20044;-53
2022/02/20 02:58:18;;;;;;;4.68;1.90;;;;;;;;;;5066446;28;20016;-55
2022/02/20 03:00:44;;;;;;;3.10;1.60;;;;;;;;;;5070563;28;20029;-56
2022/02/20 03:03:10;;;;;;;5.05;2.13;;;;;;;;;;5068638;28;20552;-56
2022/02/20 03:05:35;;;;;;;4.25;2.10;;;;;;;;;;5072354;28;20040;-55
2022/02/20 03:08:01;;;;;;;4.70;2.10;;;;;;;;;;5070940;28;20024;-55
2022/02/20 03:10:29;;;;;;;5.68;2.08;;;;;;;;;;5067372;28;20099;-56
2022/02/20 03:12:55;;;;;;;2.53;1.90;;;;;;;;;;5061928;28;20048;-55
2022/02/20 03:15:21;;;;;;;2.65;1.77;;;;;;;;;;5060105;28;20033;-57
2022/02/20 03:17:47;;;;;;;2.50;1.83;;;;;;;;;;5067222;28;20491;-51
2022/02/20 03:20:13;;;;;;;4.55;1.98;;;;;;;;;;5069538;28;20033;-52
2022/02/20 03:22:39;;;;;;;4.00;2.22;;;;;;;;;;5071478;28;20499;-52
2022/02/20 03:25:05;;;;;;;2.97;2.10;;;;;;;;;;5072166;28;20036;-53
2022/02/20 03:27:31;;;;;;;6.60;2.28;;;;;;;;;;5069446;28;20115;-53
2022/02/20 03:29:57;;;;;;;2.58;1.70;;;;;;;;;;5069393;28;20029;-51
2022/02/20 03:32:23;;;;;;;4.25;1.38;;;;;;;;;;5068337;28;20029;-53
2022/02/20 03:34:49;;;;;;;5.72;2.47;;;;;;;;;;5070135;28;20423;-55
2022/02/20 03:37:15;;;;;;;1.92;1.58;;;;;;;;;;5061670;28;20033;-57
2022/02/20 03:39:41;;;;;;;4.47;1.70;;;;;;;;;;5070275;28;20063;-55
2022/02/20 03:42:07;;;;;;;2.85;1.85;;;;;;;;;;5070675;28;20551;-53
2022/02/20 03:44:33;;;;;;;3.88;1.88;;;;;;;;;;5067851;28;20047;-52
2022/02/20 03:46:59;;;;;;;2.47;1.42;;;;;;;;;;5071628;28;20025;-54
2022/02/20 03:49:25;;;;;;;2.45;1.60;;;;;;;;;;5063163;28;20103;-56
2022/02/20 03:51:51;;;;;;;1.80;1.40;;;;;;;;;;5071638;28;20021;-51
2022/02/20 03:54:17;;;;;;;4.07;1.45;;;;;;;;;;5063642;28;20045;-51
2022/02/20 03:56:43;;;;;;;2.97;1.65;;;;;;;;;;5070144;28;20392;-54
2022/02/20 03:59:09;;;;;;;2.55;1.52;;;;;;;;;;5068311;28;20029;-53
2022/02/20 04:01:35;;;;;;;1.70;1.15;;;;;;;;;;5065464;28;20040;-51
2022/02/20 04:04:01;;;;;;;1.73;1.30;;;;;;;;;;5072394;28;20082;-50
2022/02/20 04:06:27;;;;;;;3.35;1.60;;;;;;;;;;5071269;28;20036;-51
2022/02/20 04:08:53;;;;;;;1.55;1.20;;;;;;;;;;5064812;28;20025;-51
2022/02/20 04:11:19;;;;;;;3.22;1.27;;;;;;;;;;5055576;28;20044;-57
2022/02/20 04:13:46;;;;;;;1.20;1.00;;;;;;;;;;5065061;28;20017;-56
2022/02/20 04:16:12;;;;;;;1.98;1.17;;;;;;;;;;5053787;28;20028;-52
2022/02/20 04:18:38;;;;;;;1.58;1.10;;;;;;;;;;5067823;28;20036;-57
2022/02/20 04:21:04;;;;;;;1.83;1.15;;;;;;;;;;5056438;28;20032;-54
2022/02/20 04:23:30;;;;;;;4.32;1.40;;;;;;;;;;5071010;28;20059;-51
2022/02/20 04:26:01;;;;;;;1.25;1.08;;;;;;;;;;5063826;28;20029;-51
2022/02/20 04:28:28;;;;;;;1.30;1.17;;;;;;;;;;5052645;28;20082;-55
2022/02/20 04:30:54;;;;;;;1.25;0.90;;;;;;;;;;5065024;28;20021;-51
2022/02/20 04:33:20;;;;;;;2.72;0.98;;;;;;;;;;5059775;28;20033;-50
2022/02/20 04:35:46;;;;;;;2.45;1.13;;;;;;;;;;5059429;28;20036;-52
2022/02/20 04:38:12;;;;;;;2.65;1.13;;;;;;;;;;5063368;28;20395;-53
2022/02/20 04:40:38;;;;;;;0.93;0.80;;;;;;;;;;5071189;28;20079;-51
2022/02/20 04:43:04;;;;;;;1.58;1.15;;;;;;;;;;5069845;28;20479;-51
2022/02/20 04:45:30;;;;;;;1.60;1.25;;;;;;;;;;5065980;28;20098;-51
2022/02/20 04:47:56;;;;;;;1.88;1.10;;;;;;;;;;5065976;28;20029;-57
2022/02/20 04:50:22;;;;;;;0.82;0.80;;;;;;;;;;5063615;28;20121;-57
2022/02/20 04:52:48;;;;;;;4.85;1.13;;;;;;;;;;5071112;28;20453;-52
2022/02/20 04:55:14;;;;;;;1.77;1.10;;;;;;;;;;5069652;28;20052;-52
2022/02/20 04:57:41;;;;;;;1.13;1.02;;;;;;;;;;5071456;28;20126;-51
2022/02/20 05:00:08;;;;;;;4.00;1.92;;;;;;;;;;5069361;28;20688;-51
2022/02/20 05:02:34;;;;;;;4.38;1.38;;;;;;;;;;5065241;28;20071;-51
2022/02/20 05:05:00;;;;;;;1.77;1.27;;;;;;;;;;5072600;28;20060;-55
2022/02/20 05:07:26;;;;;;;1.75;1.20;;;;;;;;;;5071280;28;20082;-52
2022/02/20 05:09:52;;;;;;;2.20;1.50;;;;;;;;;;5069881;28;20028;-50
2022/02/20 05:12:18;;;;;;;3.72;1.60;;;;;;;;;;5074389;28;20028;-50
2022/02/20 05:14:43;;;;;;;1.73;1.48;;;;;;;;;;5062803;28;20059;-51
2022/02/20 05:17:12;;;;;;;2.35;1.35;;;;;;;;;;5063253;28;20024;-50
2022/02/20 05:19:38;;;;;;;2.20;1.35;;;;;;;;;;5072562;28;20040;-51
2022/02/20 05:22:04;;;;;;;2.28;1.70;;;;;;;;;;5062270;28;20059;-53
2022/02/20 05:24:30;;;;;;;2.33;1.50;;;;;;;;;;5069731;28;20567;-55
2022/02/20 05:26:56;;;;;;;2.55;1.50;;;;;;;;;;5072819;28;20029;-56
2022/02/20 05:29:22;;;;;;;1.92;1.77;;;;;;;;;;5064570;28;20032;-55
2022/02/20 05:31:48;;;;;;;3.15;1.58;;;;;;;;;;5073584;28;20071;-55
2022/02/20 05:34:14;;;;;;;2.10;1.50;;;;;;;;;;5070535;28;20028;-55
2022/02/20 05:36:40;;;;;;;1.73;1.45;;;;;;;;;;5073911;28;20024;-56
2022/02/20 05:39:06;;;;;;;2.55;1.73;;;;;;;;;;5067868;28;20107;-51
2022/02/20 05:41:32;;;;;;;2.10;1.90;;;;;;;;;;5065709;28;20037;-52
2022/02/20 05:43:58;;;;;;;5.88;1.92;;;;;;;;;;5069538;28;20827;-51
2022/02/20 05:46:24;;;;;;;9.50;2.53;;;;;;;;;;5068115;28;20115;-50
2022/02/20 05:48:50;;;;;;;4.05;1.80;;;;;;;;;;5073317;28;20469;-50
2022/02/20 05:51:16;;;;;;;3.10;2.17;;;;;;;;;;5069375;28;20072;-51
2022/02/20 05:53:42;;;;;;;3.38;2.10;;;;;;;;;;5073876;28;20122;-51
2022/02/20 05:56:08;;;;;;;3.28;2.50;;;;;;;;;;5071124;28;20024;-54
2022/02/20 05:58:34;;;;;;;3.03;2.05;;;;;;;;;;5073115;28;20032;-56
2022/02/20 06:01:00;;;;;;;3.53;2.30;;;;;;;;;;5062359;28;20040;-55
2022/02/20 06:03:26;;;;;;;3.63;2.67;;;;;;;;;;5064990;28;20119;-53
2022/02/20 06:05:52;;;;;;;3.33;2.00;;;;;;;;;;5073040;28;20466;-54
2022/02/20 06:08:19;;;;;;;3.25;2.25;;;;;;;;;;5073638;28;20032;-53
2022/02/20 06:10:46;;;;;;;2.28;2.03;;;;;;;;;;5054352;28;20028;-52
2022/02/20 06:13:12;;;;;;;3.90;2.10;;;;;;;;;;5066690;28;20032;-52
2022/02/20 06:15:38;;;;;;;3.63;2.60;;;;;;;;;;5056749;28;20033;-50
2022/02/20 06:18:04;;;;;;;2.45;2.00;;;;;;;;;;5072714;28;20028;-50
2022/02/20 06:20:30;;;;;;;2.72;2.00;;;;;;;;;;5066396;28;20028;-50
2022/02/20 06:22:56;;;;;;;3.08;2.30;;;;;;;;;;5062750;28;20032;-50
2022/02/20 06:25:22;;;;;;;2.60;1.95;;;;;;;;;;5065062;28;20476;-51
2022/02/20 06:27:49;;;;;;;2.83;2.08;;;;;;;;;;5070286;28;20119;-50
2022/02/20 06:30:15;;;;;;;4.03;2.70;;;;;;;;;;5063425;28;20047;-50
2022/02/20 06:32:41;;;;;;;4.22;2.40;;;;;;;;;;5067732;28;20049;-55
2022/02/20 06:35:07;;;;;;;2.38;1.75;;;;;;;;;;5071412;28;20040;-53
2022/02/20 06:37:33;;;;;;;2.65;1.60;;;;;;;;;;5067671;28;20031;-54
2022/02/20 06:39:59;;;;;;;2.38;1.65;;;;;;;;;;5069341;28;20032;-52
2022/02/20 06:42:25;;;;;;;3.85;2.10;;;;;;;;;;5068391;28;20028;-52
2022/02/20 06:44:51;;;;;;;2.67;1.85;;;;;;;;;;5067240;28;20017;-53
2022/02/20 06:47:17;;;;;;;2.33;1.90;;;;;;;;;;5064590;28;20048;-55
2022/02/20 06:49:43;;;;;;;4.35;2.10;;;;;;;;;;5061103;28;20036;-51
2022/02/20 06:52:09;;;;;;;2.75;2.08;;;;;;;;;;5072244;28;20141;-51
2022/02/20 06:54:35;;;;;;;2.72;1.83;;;;;;;;;;5071617;28;20468;-50
2022/02/20 06:57:01;;;;;;;2.15;1.55;;;;;;;;;;5071862;28;20111;-50
2022/02/20 06:59:27;;;;;;;4.78;2.17;;;;;;;;;;5071819;28;20427;-50
2022/02/20 07:01:53;;;;;;;3.35;2.20;;;;;;;;;;5061958;28;20036;-50
2022/02/20 07:04:19;;;;;;;2.55;2.10;;;;;;;;;;5067103;28;20461;-51
2022/02/20 07:06:46;;;;;;;5.88;2.20;;;;;;;;;;5068814;28;20119;-55
2022/02/20 07:09:12;;;;;;;3.42;2.00;;;;;;;;;;5063754;28;20052;-56
2022/02/20 07:11:39;;;;;;;2.25;1.83;;;;;;;;;;5059344;28;20033;-54
2022/02/20 07:14:05;;;;;;;4.18;2.85;;;;;;;;;;5069058;28;20034;-53
2022/02/20 07:16:32;;;;;;;2.25;1.80;;;;;;;;;;5063215;28;20024;-54
2022/02/20 07:18:58;;;;;;;3.00;2.13;;;;;;;;;;5071961;28;20033;-55
2022/02/20 07:21:24;;;;;;;2.95;2.25;;;;;;;;;;5067305;28;20031;-54
2022/02/20 07:23:50;;;;;;;4.18;2.55;;;;;;;;;;5064877;28;20668;-55
2022/02/20 07:26:16;;;;;;;5.22;2.60;;;;;;;;;;5071956;28;20054;-50
2022/02/20 07:28:42;;;;;;;2.58;1.95;;;;;;;;;;5069347;28;20497;-53
2022/02/20 07:31:08;;;;;;;3.50;1.95;;;;;;;;;;5069530;28;20060;-51
2022/02/20 07:33:34;;;;;;;2.80;2.05;;;;;;;;;;5059536;28;20029;-51
2022/02/20 07:36:00;;;;;;;2.67;1.85;;;;;;;;;;5062597;28;20040;-53
2022/02/20 07:38:27;;;;;;;2.90;1.90;;;;;;;;;;5063151;28;20032;-50
2022/02/20 07:40:53;;;;;;;2.80;2.05;;;;;;;;;;5071978;28;20082;-53
2022/02/20 07:43:19;;;;;;;2.83;2.00;;;;;;;;;;5071743;28;20032;-56
2022/02/20 07:45:45;;;;;;;4.85;2.33;;;;;;;;;;5071846;28;20078;-52
2022/02/20 07:48:12;;;;;;;2.63;1.80;;;;;;;;;;5071773;28;20025;-52
2022/02/20 07:50:38;;;;;;;4.07;2.33;;;;;;;;;;5071479;28;20021;-50
2022/02/20 07:53:05;;;;;;;3.83;2.10;;;;;;;;;;5069071;28;20112;-55
2022/02/20 07:55:32;;;;;;;3.15;2.38;;;;;;;;;;5061986;28;20481;-50
2022/02/20 07:58:02;;;;;;;5.05;2.47;;;;;;;;;;5063666;28;20020;-54
2022/02/20 08:00:30;;;;;;;3.13;2.50;;;;;;;;;;5068588;28;20055;-51
2022/02/20 08:02:56;;;;;;;3.08;2.30;;;;;;;;;;5066852;28;20028;-51
2022/02/20 08:05:22;;;;;;;5.95;2.22;;;;;;;;;;5071228;28;20115;-51
2022/02/20 08:07:48;;;;;;;3.05;2.42;;;;;;;;;;5063124;28;20075;-50
2022/02/20 08:10:14;;;;;;;3.67;2.47;;;;;;;;;;5069938;28;20071;-54
2022/02/20 08:12:40;;;;;;;2.70;2.17;;;;;;;;;;5072278;28;20024;-51
2022/02/20 08:15:06;;;;;;;3.08;2.40;;;;;;;;;;5071425;28;20361;-50
2022/02/20 08:17:32;;;;;;;2.58;2.17;;;;;;;;;;5062690;28;20087;-50
2022/02/20 08:19:58;;;;;;;4.25;2.70;;;;;;;;;;5067113;28;20500;-53
2022/02/20 08:22:24;;;;;;;4.90;2.95;;;;;;;;;;5069781;28;20025;-54
2022/02/20 08:24:50;;;;;;;6.18;3.08;;;;;;;;;;5069271;28;20357;-53
2022/02/20 08:27:16;;;;;;;2.58;2.10;;;;;;;;;;5061025;28;20017;-55
2022/02/20 08:29:42;;;;;;;3.80;2.53;;;;;;;;;;5069103;28;20078;-56
2022/02/20 08:32:09;;;;;;;3.65;2.22;;;;;;;;;;5056221;28;20036;-51
2022/02/20 08:34:35;;;;;;;3.33;2.40;;;;;;;;;;5054381;28;20045;-53
2022/02/20 08:37:02;;;;;;;3.47;2.33;;;;;;;;;;5071714;28;20116;-51
2022/02/20 08:39:28;;;;;;;4.20;2.67;;;;;;;;;;5071905;28;20038;-51
2022/02/20 08:41:55;;;;;;;4.43;3.15;;;;;;;;;;5064207;28;20031;-51
2022/02/20 08:44:22;;;;;;;2.90;2.08;;;;;;;;;;5068363;28;20036;-51
2022/02/20 08:46:48;;;;;;;3.65;2.60;;;;;;;;;;5075203;28;20046;-50
2022/02/20 08:49:13;;;;;;;3.75;2.63;;;;;;;;;;5073667;28;20021;-51
2022/02/20 08:51:39;;;;;;;4.20;3.08;;;;;;;;;;5066430;28;20155;-50
2022/02/20 08:54:06;;;;;;;3.95;2.55;;;;;;;;;;5070044;28;20402;-53
2022/02/20 08:56:32;;;;;;;3.92;1.98;;;;;;;;;;5072990;28;20115;-51
2022/02/20 08:58:59;;;;;;;4.60;2.63;;;;;;;;;;5059462;28;20112;-54
2022/02/20 09:01:27;;;;;;;3.60;2.45;;;;;;;;;;5084079;28;20054;-50
2022/02/20 09:04:02;;;;;;;4.15;2.35;;;;;;;;;;5066786;28;20033;-51
2022/02/20 09:06:28;;;;;;;3.08;2.17;;;;;;;;;;5073558;28;20040;-50
2022/02/20 09:08:54;;;;;;;3.00;2.10;;;;;;;;;;5071447;28;20040;-53
2022/02/20 09:11:20;;;;;;;3.55;2.20;;;;;;;;;;5061232;28;20028;-54
2022/02/20 09:13:46;;;;;;;3.42;2.20;;;;;;;;;;5073761;28;20059;-52
2022/02/20 09:16:12;;;;;;;5.40;2.35;;;;;;;;;;5071022;28;20028;-55
2022/02/20 09:18:38;;;;;;;3.47;2.42;;;;;;;;;;5074633;28;20115;-52
2022/02/20 09:21:04;;;;;;;3.75;2.70;;;;;;;;;;5074444;28;20032;-49
2022/02/20 09:23:30;;;;;;;3.85;2.58;;;;;;;;;;5065111;28;20036;-51
2022/02/20 09:25:56;;;;;;;5.38;2.70;;;;;;;;;;5057575;28;20083;-53
2022/02/20 09:28:22;;;;;;;3.72;2.53;;;;;;;;;;5061733;28;20086;-50
2022/02/20 09:30:48;;;;;;;2.92;2.33;;;;;;;;;;5061306;28;20028;-54
2022/02/20 09:33:15;;;;;;;3.10;2.30;;;;;;;;;;5064023;28;20016;-55
2022/02/20 09:35:41;;;;;;;3.42;2.25;;;;;;;;;;5067978;28;20020;-55
2022/02/20 09:38:07;;;;;;;4.75;2.70;;;;;;;;;;5070562;28;20427;-53
2022/02/20 09:40:33;;;;;;;4.63;2.92;;;;;;;;;;5072546;28;20036;-55
2022/02/20 09:43:00;;;;;;;5.05;3.00;;;;;;;;;;5068581;28;20021;-51
2022/02/20 09:45:27;;;;;;;5.60;3.25;;;;;;;;;;5070378;28;20090;-53
2022/02/20 09:47:53;;;;;;;4.78;3.05;;;;;;;;;;5063000;28;20073;-53
2022/02/20 09:50:18;;;;;;;4.40;2.70;;;;;;;;;;5063893;28;20028;-52
2022/02/20 09:52:44;;;;;;;4.80;3.08;;;;;;;;;;5071977;28;20563;-53
2022/02/20 09:55:10;;;;;;;4.13;2.55;;;;;;;;;;5070574;28;20041;-54
2022/02/20 09:57:36;;;;;;;5.47;3.40;;;;;;;;;;5064424;28;20149;-50
2022/02/20 10:00:07;;;;;;;4.97;3.15;;;;;;;;;;5058435;28;20032;-50
2022/02/20 10:02:37;;;;;;;5.55;3.63;;;;;;;;;;5056183;28;20025;-55
2022/02/20 10:05:04;;;;;;;6.47;3.67;;;;;;;;;;5066501;28;20028;-54
2022/02/20 10:07:35;;;;;;;4.72;3.15;;;;;;;;;;5063644;28;20036;-51
2022/02/20 10:10:27;;;;;;;4.78;2.92;;;;;;;;;;5073562;28;20063;-55
2022/02/20 10:13:00;;;;;;;6.82;3.67;;;;;;;;;;5064079;28;20032;-53
2022/02/20 10:15:36;;;;;;;4.55;3.15;;;;;;;;;;5064136;28;20021;-54
2022/02/20 10:18:17;;;;;;;5.15;3.22;;;;;;;;;;5064299;28;20047;-55
2022/02/20 10:20:44;;;;;;;6.20;3.88;;;;;;;;;;5059054;28;20102;-51
2022/02/20 10:23:14;;;;;;;8.15;4.30;;;;;;;;;;5066137;28;20036;-53
2022/02/20 10:25:41;;;;;;;7.20;4.22;;;;;;;;;;5058190;28;20092;-55
2022/02/20 10:28:08;;;;;;;7.32;4.40;;;;;;;;;;5064844;28;20032;-51
2022/02/20 10:30:34;;;;;;;6.28;3.88;;;;;;;;;;5071460;28;20075;-54
2022/02/20 10:33:05;;;;;;;7.63;4.00;;;;;;;;;;5072966;28;20692;-50
2022/02/20 10:35:34;;;;;;;5.53;3.47;;;;;;;;;;5066695;28;20441;-52
2022/02/20 10:38:21;;;;;;;5.15;3.25;;;;;;;;;;5070633;28;20016;-54
2022/02/20 10:40:47;;;;;;;5.47;3.67;;;;;;;;;;5065043;28;20032;-56
2022/02/20 10:43:32;;;;;;;6.07;3.53;;;;;;;;;;5067710;28;20130;-54
2022/02/20 10:46:12;;;;;;;4.45;3.10;;;;;;;;;;5064379;28;22282;-51
2022/02/20 10:48:39;;;;;;;4.88;3.30;;;;;;;;;;5062690;28;20520;-53
2022/02/20 10:51:05;;;;;;;4.28;3.00;;;;;;;;;;5070481;28;20037;-52
2022/02/20 10:53:32;;;;;;;4.85;3.10;;;;;;;;;;5062434;28;20440;-50
2022/02/20 10:56:01;;;;;;;5.63;2.88;;;;;;;;;;5059202;28;20029;-50
2022/02/20 10:58:28;;;;;;;4.53;2.83;;;;;;;;;;5066380;28;20365;-53
2022/02/20 11:00:54;;;;;;;4.05;2.53;;;;;;;;;;5057740;28;20052;-51
2022/02/20 11:03:21;;;;;;;3.92;2.65;;;;;;;;;;5070157;28;20436;-49
2022/02/20 11:05:48;;;;;;;4.10;2.22;;;;;;;;;;5071792;28;20373;-49
2022/02/20 11:08:14;;;;;;;5.45;2.38;;;;;;;;;;5068626;28;20020;-49
2022/02/20 11:10:42;;;;;;;3.65;2.40;;;;;;;;;;5064868;28;20049;-51
2022/02/20 11:13:09;;;;;;;5.85;2.30;;;;;;;;;;5062430;28;20033;-49
2022/02/20 11:15:35;;;;;;;3.88;1.88;;;;;;;;;;5070017;28;20039;-50
2022/02/20 11:18:02;;;;;;;3.67;2.00;;;;;;;;;;5072260;28;20025;-54
2022/02/20 11:20:32;;;;;;;3.10;1.90;;;;;;;;;;5067441;28;20132;-54
2022/02/20 11:23:00;;;;;;;7.35;2.30;;;;;;;;;;5056742;28;20111;-56
2022/02/20 11:25:26;;;;;;;2.10;1.67;;;;;;;;;;5061522;28;20500;-55
2022/02/20 11:27:53;;;;;;;6.55;2.00;;;;;;;;;;5061362;28;20783;-53
2022/02/20 11:30:19;;;;;;;3.42;1.67;;;;;;;;;;5063778;28;20070;-51
2022/02/20 11:32:45;;;;;;;4.50;2.10;;;;;;;;;;5067563;28;20039;-53
2022/02/20 11:35:17;;;;;;;3.15;1.60;;;;;;;;;;5056329;28;20100;-54
2022/02/20 11:37:50;;;;;;;3.20;2.10;;;;;;;;;;5065573;28;20056;-54
2022/02/20 11:40:17;;;;;;;5.93;2.20;;;;;;;;;;5063138;28;20513;-51
2022/02/20 11:43:01;;;;;;;5.07;2.22;;;;;;;;;;5068247;28;20099;-54
2022/02/20 11:45:28;;;;;;;4.25;2.22;;;;;;;;;;5062801;28;20107;-53
2022/02/20 11:48:03;;;;;;;3.42;2.05;;;;;;;;;;5066774;28;20020;-52
2022/02/20 11:50:29;;;;;;;2.50;2.20;;;;;;;;;;5066273;28;20365;-52
2022/02/20 11:52:56;;;;;;;4.28;2.15;;;;;;;;;;5064909;28;20044;-52
2022/02/20 11:55:29;;;;;;;6.15;2.92;;;;;;;;;;5067377;28;20111;-54
2022/02/20 11:58:21;;;;;;;11.43;2.50;;;;;;;;;;5065948;28;20058;-53
2022/02/20 12:00:56;;;;;;;3.53;2.63;;;;;;;;;;5060596;28;20037;-51
2022/02/20 12:03:23;;;;;;;4.45;2.47;;;;;;;;;;5067213;28;20063;-51
2022/02/20 12:06:07;;;;;;;4.03;2.50;;;;;;;;;;5068171;28;20052;-50
2022/02/20 12:08:34;;;;;;;7.20;2.45;;;;;;;;;;5067326;28;20527;-51
2022/02/20 12:11:11;;;;;;;5.03;2.85;;;;;;;;;;5064822;28;20032;-51
2022/02/20 12:13:45;;;;;;;4.35;2.90;;;;;;;;;;5067956;28;20029;-55
2022/02/20 12:16:24;;;;;;;3.85;2.72;;;;;;;;;;5067862;28;20508;-53
2022/02/20 12:19:09;;;;;;;8.18;3.05;;;;;;;;;;5073181;28;20056;-55
2022/02/20 12:21:53;;;;;;;4.85;3.25;;;;;;;;;;5073861;28;20071;-53
2022/02/20 12:24:21;;;;;;;5.47;2.67;;;;;;;;;;5070077;28;20040;-53
2022/02/20 12:26:50;;;;;;;5.82;3.30;;;;;;;;;;5065360;28;20128;-56
2022/02/20 12:29:17;;;;;;;5.35;3.53;;;;;;;;;;5072748;28;20063;-55
2022/02/20 12:31:58;;;;;;;10.45;5.00;;;;;;;;;;5070398;28;20025;-53
2022/02/20 12:34:43;;;;;;;7.40;4.22;;;;;;;;;;5068586;28;20032;-53
2022/02/20 12:37:10;;;;;;;7.60;4.45;;;;;;;;;;5065478;28;20028;-52
2022/02/20 12:39:37;;;;;;;7.40;4.80;;;;;;;;;;5072154;28;20032;-58
2022/02/20 12:42:04;;;;;;;8.25;4.22;;;;;;;;;;5071816;28;20121;-53
2022/02/20 12:44:30;;;;;;;5.32;3.58;;;;;;;;;;5060487;28;20025;-57
2022/02/20 12:46:56;;;;;;;7.50;3.90;;;;;;;;;;5072026;28;20063;-52
2022/02/20 12:49:22;;;;;;;8.63;4.95;;;;;;;;;;5067291;28;20024;-53
2022/02/20 12:51:48;;;;;;;10.95;4.78;;;;;;;;;;5062301;28;20029;-53
2022/02/20 12:54:14;;;;;;;10.57;4.88;;;;;;;;;;5068873;28;20359;-54
2022/02/20 12:56:40;;;;;;;13.13;4.82;;;;;;;;;;5067201;28;20047;-56
2022/02/20 12:59:06;;;;;;;10.90;5.45;;;;;;;;;;5057453;28;20475;-57
2022/02/20 13:01:32;;;;;;;6.70;4.35;;;;;;;;;;5066424;28;20032;-52
2022/02/20 13:03:58;;;;;;;6.05;4.13;;;;;;;;;;5062232;28;20043;-56
2022/02/20 13:06:34;;;;;;;10.75;4.30;;;;;;;;;;5071447;28;20124;-54
2022/02/20 13:09:01;;;;;;;10.05;4.95;;;;;;;;;;5071641;28;20016;-56
2022/02/20 13:11:28;;;;;;;12.18;4.72;;;;;;;;;;5070566;28;20029;-56
2022/02/20 13:14:07;;;;;;;9.60;4.28;;;;;;;;;;5068735;28;20143;-54
2022/02/20 13:16:33;;;;;;;6.38;3.80;;;;;;;;;;5071389;28;20028;-54
2022/02/20 13:18:59;;;;;;;11.63;4.63;;;;;;;;;;5073883;28;20031;-57
2022/02/20 13:21:29;;;;;;;9.07;4.78;;;;;;;;;;5073878;28;20032;-54
2022/02/20 13:23:55;;;;;;;12.52;4.43;;;;;;;;;;5071607;28;20051;-52
2022/02/20 13:26:23;;;;;;;10.70;4.70;;;;;;;;;;5066689;28;20028;-51
2022/02/20 13:28:56;;;;;;;9.70;4.15;;;;;;;;;;5071589;28;20389;-57
2022/02/20 13:31:26;;;;;;;7.50;3.92;;;;;;;;;;5071114;28;20021;-56
2022/02/20 13:33:55;;;;;;;6.30;4.05;;;;;;;;;;5073442;28;20755;-53
2022/02/20 13:36:25;;;;;;;9.60;3.58;;;;;;;;;;5073262;28;20564;-52
2022/02/20 13:39:10;;;;;;;13.50;4.30;;;;;;;;;;5067682;28;20169;-51
2022/02/20 13:41:37;;;;;;;10.43;4.22;;;;;;;;;;5068302;28;20115;-54
2022/02/20 13:44:04;;;;;;;9.30;3.38;;;;;;;;;;5071797;28;20452;-51
2022/02/20 13:46:42;;;;;;;9.75;3.50;;;;;;;;;;5066737;28;21377;-56
2022/02/20 13:49:08;;;;;;;4.80;3.17;;;;;;;;;;5072102;28;20613;-57
2022/02/20 13:51:44;;;;;;;8.32;2.90;;;;;;;;;;5073162;28;20468;-52
2022/02/20 13:54:14;;;;;;;9.43;3.55;;;;;;;;;;5069658;28;20044;-51
2022/02/20 13:56:40;;;;;;;10.23;2.60;;;;;;;;;;5063035;28;20040;-50
2022/02/20 13:59:07;;;;;;;5.82;2.60;;;;;;;;;;5064538;28;20017;-52
2022/02/20 14:01:40;;;;;;;7.30;3.35;;;;;;;;;;5069093;28;20561;-54
2022/02/20 14:04:17;;;;;;;3.67;2.22;;;;;;;;;;5072812;28;20032;-55
2022/02/20 14:06:43;;;;;;;5.82;2.33;;;;;;;;;;5073931;28;20433;-53
2022/02/20 14:09:11;;;;;;;4.45;2.50;;;;;;;;;;5066019;28;20095;-53
2022/02/20 14:11:39;;;;;;;6.70;2.92;;;;;;;;;;5065736;28;20037;-51
2022/02/20 14:14:15;;;;;;;7.80;2.45;;;;;;;;;;5063451;28;20051;-54
2022/02/20 14:16:41;;;;;;;3.42;2.42;;;;;;;;;;5069922;28;20033;-52
2022/02/20 14:19:06;;;;;;;6.60;2.67;;;;;;;;;;5064502;28;20043;-53
2022/02/20 14:21:33;;;;;;;3.15;2.38;;;;;;;;;;5068524;28;20028;-52
2022/02/20 14:23:59;;;;;;;5.05;2.20;;;;;;;;;;5064896;28;20039;-56
2022/02/20 14:26:26;;;;;;;3.38;2.10;;;;;;;;;;5063915;28;20033;-56
2022/02/20 14:28:53;;;;;;;2.90;2.13;;;;;;;;;;5065403;28;20017;-57
2022/02/20 14:31:24;;;;;;;3.17;1.77;;;;;;;;;;5063372;28;20036;-56
2022/02/20 14:33:51;;;;;;;4.15;1.30;;;;;;;;;;5070794;28;20047;-56
2022/02/20 14:36:24;;;;;;;6.95;1.98;;;;;;;;;;5065763;28;20062;-55
2022/02/20 14:38:50;;;;;;;2.75;1.50;;;;;;;;;;5066521;28;20107;-56
2022/02/20 14:41:16;;;;;;;2.90;1.38;;;;;;;;;;5059663;28;20063;-53
2022/02/20 14:43:43;;;;;;;8.45;1.63;;;;;;;;;;5072838;28;20045;-51